Time;durP1;ratioP1;P1;durP2;ratioP2;P2;SDS_P1;SDS_P2;PMS_P1;PMS_P2;Temp;Humidity;BMP_temperature;BMP_pressure;BME280_temperature;BME280_humidity;BME280_pressure;Samples;Min_cycle;Max_cycle;Signal;HPM_P1;HPM_P2
2023/01/08 00:02:27;;;;;;;15.00;10.50;;;22.00;59.50;;;;;;212006;1293;24275;-54
2023/01/08 00:07:32;;;;;;;11.50;10.10;;;22.00;59.60;;;;;;211900;1302;26531;-53
2023/01/08 00:12:36;;;;;;;13.00;11.00;;;22.00;59.60;;;;;;212013;1299;25256;-51
2023/01/08 00:17:40;;;;;;;12.70;10.60;;;21.90;59.80;;;;;;212152;1292;22632;-54
2023/01/08 00:22:47;;;;;;;12.00;9.80;;;21.90;59.60;;;;;;212171;1285;22494;-54
2023/01/08 00:27:52;;;;;;;16.10;10.80;;;21.90;59.70;;;;;;212646;1302;22591;-55
2023/01/08 00:32:56;;;;;;;11.20;9.60;;;21.80;59.70;;;;;;212236;1294;23392;-54
2023/01/08 00:38:00;;;;;;;18.80;11.10;;;21.80;59.80;;;;;;212116;1292;22485;-56
2023/01/08 00:43:06;;;;;;;16.70;10.60;;;21.80;60.00;;;;;;212528;1306;23094;-56
2023/01/08 00:48:10;;;;;;;17.60;10.60;;;21.80;60.20;;;;;;212133;1292;22524;-52
2023/01/08 00:53:14;;;;;;;14.50;10.40;;;21.70;61.30;;;;;;211901;1293;23140;-55
2023/01/08 00:58:18;;;;;;;14.40;9.50;;;21.70;60.80;;;;;;212064;1292;22498;-56
2023/01/08 01:03:23;;;;;;;11.80;9.90;;;21.70;60.40;;;;;;212141;1293;22465;-57
2023/01/08 01:08:27;;;;;;;12.70;10.40;;;21.70;59.90;;;;;;212162;1294;22493;-56
2023/01/08 01:13:31;;;;;;;13.70;9.70;;;21.90;58.90;;;;;;212303;1289;22590;-56
2023/01/08 01:18:35;;;;;;;14.10;10.80;;;21.90;59.10;;;;;;212572;1292;23202;-56
2023/01/08 01:23:40;;;;;;;11.60;9.90;;;21.80;59.10;;;;;;212502;1292;26928;-56
2023/01/08 01:28:47;;;;;;;13.40;10.90;;;21.90;58.90;;;;;;212175;1293;22529;-56
2023/01/08 01:33:52;;;;;;;19.50;10.60;;;21.80;58.90;;;;;;211972;1298;26822;-56
2023/01/08 01:38:57;;;;;;;13.90;10.50;;;21.60;59.30;;;;;;212113;1292;25463;-55
2023/01/08 01:44:38;;;;;;;13.10;10.00;;;21.70;59.10;;;;;;212406;1293;23097;-56
2023/01/08 01:49:59;;;;;;;12.10;10.00;;;21.80;59.00;;;;;;212268;1292;25556;-55
2023/01/08 01:55:06;;;;;;;18.70;9.80;;;22.30;57.90;;;;;;212458;1312;25799;-56
2023/01/08 02:00:11;;;;;;;10.90;9.10;;;22.60;57.10;;;;;;212226;1292;23244;-57
2023/01/08 02:05:15;;;;;;;18.30;9.70;;;22.80;56.50;;;;;;212106;1299;225567;-56
2023/01/08 02:10:24;;;;;;;14.10;9.80;;;23.00;56.20;;;;;;212265;1299;22506;-55
2023/01/08 02:15:39;;;;;;;13.20;9.90;;;23.10;55.80;;;;;;212369;1283;22496;-55
2023/01/08 02:20:53;;;;;;;13.20;9.40;;;23.10;56.00;;;;;;212132;1289;22555;-56
2023/01/08 02:26:15;;;;;;;10.60;9.50;;;23.20;55.90;;;;;;212439;1299;22470;-54
2023/01/08 02:31:20;;;;;;;;;;;23.30;55.70;;;;;;212226;1292;24904;-56
2023/01/08 02:36:36;;;;;;;10.70;8.70;;;23.30;55.50;;;;;;212303;1293;22879;-56
2023/01/08 02:41:51;;;;;;;11.00;9.20;;;23.30;55.40;;;;;;212242;1293;22516;-56
2023/01/08 02:46:59;;;;;;;9.40;8.30;;;23.30;55.50;;;;;;212193;1292;22493;-56
2023/01/08 02:52:05;;;;;;;9.20;8.10;;;23.30;55.40;;;;;;212502;1293;23991;-57
2023/01/08 02:57:13;;;;;;;10.80;8.60;;;23.30;55.30;;;;;;212680;1308;25434;-56
2023/01/08 03:02:18;;;;;;;9.40;8.40;;;23.40;55.50;;;;;;212314;1294;22541;-56
2023/01/08 03:07:22;;;;;;;9.90;8.80;;;23.40;55.60;;;;;;212292;1283;22895;-56
2023/01/08 03:12:58;;;;;;;10.30;8.90;;;23.50;55.30;;;;;;212468;1293;23256;-56
2023/01/08 03:18:10;;;;;;;9.30;8.30;;;23.40;55.10;;;;;;212071;1300;22511;-56
2023/01/08 03:23:14;;;;;;;;;;;23.40;55.30;;;;;;212484;1292;22731;-57
2023/01/08 03:28:24;;;;;;;11.10;9.00;;;23.30;55.70;;;;;;212302;1292;24342;-57
2023/01/08 03:33:30;;;;;;;9.10;8.00;;;23.10;56.00;;;;;;212485;1293;25393;-57
2023/01/08 03:38:43;;;;;;;9.60;8.60;;;23.00;56.30;;;;;;212054;1294;22863;-56
2023/01/08 03:43:47;;;;;;;9.70;8.70;;;23.00;57.10;;;;;;212500;1294;24427;-55
2023/01/08 03:48:51;;;;;;;10.50;8.00;;;22.80;56.70;;;;;;212004;1292;23896;-57
2023/01/08 03:53:57;;;;;;;9.70;8.50;;;22.70;56.90;;;;;;212452;1292;23866;-57
2023/01/08 03:59:01;;;;;;;9.70;8.50;;;22.60;57.10;;;;;;212174;1300;22466;-57
2023/01/08 04:04:06;;;;;;;11.40;8.80;;;22.50;57.30;;;;;;212594;1290;22517;-57
2023/01/08 04:09:10;;;;;;;11.00;9.00;;;22.50;56.90;;;;;;212178;1299;25266;-57
2023/01/08 04:14:14;;;;;;;9.50;8.50;;;22.40;57.80;;;;;;212444;1293;22647;-57
2023/01/08 04:19:18;;;;;;;8.80;7.90;;;22.30;57.60;;;;;;212395;1302;23863;-56
2023/01/08 04:24:23;;;;;;;10.50;8.70;;;22.30;57.70;;;;;;212355;1289;23890;-57
2023/01/08 04:29:27;;;;;;;10.90;9.00;;;22.30;57.60;;;;;;212897;1294;23885;-57
2023/01/08 04:34:31;;;;;;;9.70;8.80;;;22.10;58.00;;;;;;212339;1290;22512;-57
2023/01/08 04:39:35;;;;;;;10.70;9.40;;;22.00;58.20;;;;;;212458;1292;25240;-55
2023/01/08 04:44:39;;;;;;;9.60;7.90;;;22.00;58.30;;;;;;212213;1293;23875;-57
2023/01/08 04:49:43;;;;;;;10.30;8.00;;;21.90;58.40;;;;;;212171;1300;25424;-56
2023/01/08 04:54:47;;;;;;;9.30;8.40;;;21.90;58.90;;;;;;211909;1300;22605;-56
2023/01/08 04:59:52;;;;;;;10.50;8.70;;;21.80;58.60;;;;;;212215;1286;22524;-56
2023/01/08 05:04:56;;;;;;;9.00;8.10;;;21.70;58.60;;;;;;212444;1292;22733;-57
2023/01/08 05:10:00;;;;;;;10.80;9.10;;;21.70;58.70;;;;;;212346;1303;22540;-55
2023/01/08 05:15:05;;;;;;;9.60;8.50;;;21.70;58.90;;;;;;212102;1292;22637;-56
2023/01/08 05:20:10;;;;;;;9.20;8.20;;;21.70;58.70;;;;;;212109;1294;24392;-54
2023/01/08 05:25:14;;;;;;;9.70;8.50;;;22.00;58.30;;;;;;212155;1300;24318;-56
2023/01/08 05:30:17;;;;;;;11.40;8.40;;;22.50;57.30;;;;;;212141;1302;24384;-56
2023/01/08 05:35:22;;;;;;;9.60;8.00;;;22.70;56.60;;;;;;212290;1298;22663;-58
2023/01/08 05:40:26;;;;;;;10.10;8.00;;;22.90;56.50;;;;;;212255;1286;22489;-57
2023/01/08 05:45:31;;;;;;;8.90;7.60;;;23.10;55.60;;;;;;212313;1289;23911;-57
2023/01/08 05:50:36;;;;;;;11.10;7.60;;;23.30;55.10;;;;;;212269;1293;22565;-56
2023/01/08 05:55:40;;;;;;;9.10;8.00;;;23.30;54.90;;;;;;212206;1292;25338;-57
2023/01/08 06:00:45;;;;;;;9.50;8.50;;;23.30;54.90;;;;;;212175;1285;24271;-56
2023/01/08 06:05:49;;;;;;;8.80;7.90;;;23.30;54.80;;;;;;212040;1297;23679;-56
2023/01/08 06:10:53;;;;;;;8.60;7.60;;;23.30;55.00;;;;;;212311;1286;22487;-56
2023/01/08 06:15:59;;;;;;;8.20;7.40;;;23.40;54.80;;;;;;212030;1294;22483;-56
2023/01/08 06:21:04;;;;;;;8.80;7.90;;;23.40;54.70;;;;;;212507;1293;25241;-56
2023/01/08 06:26:08;;;;;;;9.70;8.00;;;23.40;54.70;;;;;;212247;1293;25712;-56
2023/01/08 06:31:12;;;;;;;9.30;8.20;;;23.50;54.60;;;;;;212001;1298;22475;-56
2023/01/08 06:36:16;;;;;;;9.20;8.00;;;23.50;54.60;;;;;;212274;1292;22571;-57
2023/01/08 06:41:20;;;;;;;8.30;6.90;;;23.60;54.40;;;;;;212401;1292;25370;-56
2023/01/08 06:46:25;;;;;;;9.70;7.90;;;23.60;54.40;;;;;;212168;1292;23895;-57
2023/01/08 06:51:29;;;;;;;9.60;7.60;;;23.60;54.50;;;;;;212016;1292;24391;-57
2023/01/08 06:56:34;;;;;;;9.00;8.00;;;23.40;54.80;;;;;;212291;1292;23621;-57
2023/01/08 07:01:56;;;;;;;;;;;23.30;55.30;;;;;;211972;1285;24008;-56
2023/01/08 07:07:01;;;;;;;8.50;7.10;;;23.20;55.40;;;;;;212170;1292;25205;-57
2023/01/08 07:12:06;;;;;;;7.80;7.10;;;23.00;56.20;;;;;;212159;1286;24274;-56
2023/01/08 07:17:10;;;;;;;9.00;7.90;;;22.90;56.00;;;;;;212228;1301;22486;-56
2023/01/08 07:22:14;;;;;;;9.20;8.20;;;22.70;56.30;;;;;;212421;1293;22558;-57
2023/01/08 07:27:19;;;;;;;8.80;8.00;;;22.80;56.20;;;;;;212205;1298;24418;-57
2023/01/08 07:32:23;;;;;;;9.30;8.10;;;22.70;56.30;;;;;;212348;1300;22497;-57
2023/01/08 07:37:27;;;;;;;8.30;7.40;;;22.60;56.60;;;;;;212179;1298;25642;-57
2023/01/08 07:42:31;;;;;;;9.90;8.80;;;22.50;56.90;;;;;;212137;1293;24427;-57
2023/01/08 07:47:35;;;;;;;9.10;8.20;;;22.40;57.30;;;;;;212002;1300;22609;-57
2023/01/08 07:52:39;;;;;;;8.90;8.00;;;22.30;57.40;;;;;;212092;1286;23529;-57
2023/01/08 07:57:43;;;;;;;9.10;8.20;;;22.30;57.40;;;;;;212192;1292;24356;-57
2023/01/08 08:02:49;;;;;;;7.70;6.90;;;22.30;57.60;;;;;;212345;1286;22575;-57
2023/01/08 08:07:54;;;;;;;8.50;7.50;;;22.20;57.70;;;;;;212252;1300;25438;-57
2023/01/08 08:12:59;;;;;;;8.90;7.60;;;22.10;57.80;;;;;;212170;1286;22490;-54
2023/01/08 08:18:04;;;;;;;9.10;7.70;;;22.00;57.90;;;;;;211815;1293;23900;-56
2023/01/08 08:23:12;;;;;;;9.60;7.70;;;21.90;58.00;;;;;;212095;1292;25305;-56
2023/01/08 08:28:16;;;;;;;8.60;7.90;;;21.90;58.50;;;;;;212241;1295;22490;-57
2023/01/08 08:33:21;;;;;;;8.50;7.70;;;21.90;58.50;;;;;;212281;1292;24323;-57
2023/01/08 08:38:25;;;;;;;8.50;7.60;;;21.90;58.10;;;;;;212268;1286;22506;-56
2023/01/08 08:43:30;;;;;;;9.40;7.80;;;21.90;58.40;;;;;;212319;1292;22634;-57
2023/01/08 08:48:34;;;;;;;9.10;6.90;;;21.90;58.40;;;;;;212613;1292;22721;-51
2023/01/08 08:53:38;;;;;;;9.10;8.10;;;21.90;58.00;;;;;;212374;1290;22545;-49
2023/01/08 08:58:44;;;;;;;8.60;7.20;;;22.00;57.90;;;;;;212099;1290;22475;-49
2023/01/08 09:03:48;;;;;;;8.90;7.20;;;21.80;58.30;;;;;;212127;1293;25393;-51
2023/01/08 09:08:56;;;;;;;9.30;7.40;;;21.80;58.50;;;;;;212385;1285;22493;-49
2023/01/08 09:14:01;;;;;;;10.40;7.10;;;21.80;58.70;;;;;;212183;1286;22473;-53
2023/01/08 09:19:06;;;;;;;12.10;7.30;;;21.80;59.30;;;;;;212016;1288;24272;-52
2023/01/08 09:24:10;;;;;;;10.30;7.10;;;21.70;59.60;;;;;;212960;1286;22490;-48
2023/01/08 09:29:15;;;;;;;11.10;7.80;;;21.80;59.10;;;;;;211854;1290;22533;-46
2023/01/08 09:34:23;;;;;;;10.30;7.40;;;21.80;59.60;;;;;;212224;1283;22495;-50
2023/01/08 09:39:27;;;;;;;9.10;7.70;;;21.80;58.70;;;;;;212378;1293;24373;-54
2023/01/08 09:44:45;;;;;;;27.40;8.80;;;21.80;59.60;;;;;;212064;1286;22487;-54
2023/01/08 09:49:52;;;;;;;12.90;8.60;;;21.80;61.70;;;;;;212332;1286;25235;-51
2023/01/08 09:54:56;;;;;;;15.50;9.40;;;22.10;64.10;;;;;;212152;1283;22482;-45
2023/01/08 10:00:00;;;;;;;14.40;8.70;;;22.10;64.70;;;;;;212573;1293;24284;-55
2023/01/08 10:05:17;;;;;;;12.90;8.60;;;22.30;62.70;;;;;;212086;1293;25334;-54
2023/01/08 10:10:28;;;;;;;10.70;8.50;;;22.30;61.50;;;;;;212175;1293;22484;-54
2023/01/08 10:15:32;;;;;;;9.90;8.20;;;22.40;61.30;;;;;;212396;1294;22743;-54
2023/01/08 10:20:38;;;;;;;11.80;8.10;;;22.30;60.00;;;;;;212294;1293;22987;-52
2023/01/08 10:25:52;;;;;;;10.20;7.50;;;22.00;61.30;;;;;;212309;1293;24281;-53
2023/01/08 10:31:07;;;;;;;11.70;7.40;;;22.00;60.90;;;;;;212154;1286;22545;-50
2023/01/08 10:36:16;;;;;;;13.40;10.10;;;22.00;61.20;;;;;;212595;1285;22512;-53
2023/01/08 10:41:20;;;;;;;11.90;10.80;;;22.00;63.00;;;;;;212107;1286;24301;-55
2023/01/08 10:46:30;;;;;;;15.30;9.80;;;22.30;62.00;;;;;;212181;1290;22481;-51
2023/01/08 10:51:34;;;;;;;12.90;8.60;;;22.50;61.00;;;;;;212512;1293;26546;-54
2023/01/08 10:56:43;;;;;;;18.60;8.70;;;22.30;60.40;;;;;;212366;1299;22503;-55
2023/01/08 11:01:49;;;;;;;11.70;7.50;;;22.10;60.40;;;;;;212168;1289;22541;-52
2023/01/08 11:06:58;;;;;;;9.70;7.70;;;22.30;60.00;;;;;;212525;1290;22572;-52
2023/01/08 11:12:03;;;;;;;11.90;8.30;;;22.20;60.00;;;;;;212369;1283;26861;-52
2023/01/08 11:17:11;;;;;;;16.20;8.30;;;22.10;59.40;;;;;;212325;1286;22619;-54
2023/01/08 11:22:19;;;;;;;11.70;7.80;;;22.10;58.80;;;;;;212245;1290;22618;-57
2023/01/08 11:27:31;;;;;;;12.10;7.60;;;22.00;59.00;;;;;;212363;1289;22492;-49
2023/01/08 11:32:50;;;;;;;14.80;7.80;;;22.20;59.30;;;;;;212445;1292;22888;-50
2023/01/08 11:37:58;;;;;;;15.20;7.30;;;22.20;59.90;;;;;;212364;1292;24299;-47
2023/01/08 11:43:30;;;;;;;13.10;7.30;;;22.20;60.00;;;;;;212381;1293;24250;-49
2023/01/08 11:48:55;;;;;;;22.50;6.90;;;22.20;59.90;;;;;;213845;1292;22740;-50
2023/01/08 11:54:20;;;;;;;17.50;7.90;;;22.30;61.00;;;;;;212270;1290;22499;-48
2023/01/08 12:00:01;;;;;;;14.20;6.90;;;22.20;59.80;;;;;;212426;1286;22580;-50
2023/01/08 12:05:24;;;;;;;14.40;7.00;;;22.10;59.90;;;;;;212359;1292;22487;-50
2023/01/08 12:11:09;;;;;;;12.00;7.60;;;22.10;59.80;;;;;;220874;1306;22995;-50
2023/01/08 12:16:58;;;;;;;22.20;11.00;;;22.10;59.40;;;;;;214949;1293;23927;-52
2023/01/08 12:22:27;;;;;;;20.50;10.10;;;22.20;60.50;;;;;;212492;1300;25726;-48
2023/01/08 12:27:38;;;;;;;20.30;9.30;;;22.10;62.30;;;;;;212490;1295;25769;-48
2023/01/08 12:33:02;;;;;;;23.70;8.90;;;22.00;61.90;;;;;;212385;1302;22493;-49
2023/01/08 12:38:23;;;;;;;14.50;8.70;;;22.00;61.50;;;;;;212609;1302;25457;-50
2023/01/08 12:43:32;;;;;;;14.70;7.50;;;22.00;61.30;;;;;;212631;1299;23208;-49
2023/01/08 12:48:38;;;;;;;14.50;7.80;;;21.90;60.90;;;;;;212428;1297;22507;-49
2023/01/08 12:54:36;;;;;;;14.00;8.40;;;21.90;61.20;;;;;;212359;1302;22830;-50
2023/01/08 12:59:55;;;;;;;11.30;7.40;;;21.90;60.60;;;;;;210710;1323;22483;-50
2023/01/08 13:05:27;;;;;;;11.30;7.70;;;22.00;60.20;;;;;;210698;1306;24288;-47
2023/01/08 13:10:34;;;;;;;16.30;7.90;;;22.00;60.00;;;;;;210700;1302;22900;-48
2023/01/08 13:15:40;;;;;;;10.50;7.40;;;22.00;60.20;;;;;;210732;1322;22842;-50
2023/01/08 13:21:01;;;;;;;12.60;7.50;;;21.90;60.50;;;;;;210987;1311;25423;-48
2023/01/08 13:26:06;;;;;;;12.10;7.80;;;21.90;59.80;;;;;;210861;1308;24279;-49
2023/01/08 13:31:19;;;;;;;12.90;7.70;;;21.70;60.00;;;;;;211663;1308;22859;-51
2023/01/08 13:36:29;;;;;;;10.70;7.30;;;21.70;60.50;;;;;;212430;1314;25280;-47
2023/01/08 13:41:54;;;;;;;11.90;7.50;;;21.70;60.00;;;;;;212298;1312;25298;-50
2023/01/08 13:47:01;;;;;;;11.80;7.60;;;21.70;59.80;;;;;;212320;1293;22540;-50
2023/01/08 13:52:05;;;;;;;10.50;7.60;;;21.70;59.70;;;;;;212559;1299;24272;-50
2023/01/08 13:58:00;;;;;;;10.20;6.70;;;21.70;59.50;;;;;;215818;1299;544014;-48
2023/01/08 14:03:04;;;;;;;9.50;6.70;;;21.70;59.20;;;;;;220443;1282;26519;-46
2023/01/08 14:08:21;;;;;;;8.40;6.90;;;21.70;59.30;;;;;;218429;1280;2518093;-49
2023/01/08 14:13:30;;;;;;;10.00;6.60;;;21.60;59.30;;;;;;220781;1278;22647;-49
2023/01/08 14:18:35;;;;;;;8.30;6.20;;;21.60;59.30;;;;;;220482;1280;22548;-47
2023/01/08 14:23:46;;;;;;;11.50;6.60;;;21.60;59.20;;;;;;220355;1278;22649;-47
2023/01/08 14:28:52;;;;;;;11.20;6.90;;;21.60;59.20;;;;;;220398;1281;25350;-47
2023/01/08 14:33:58;;;;;;;7.70;6.60;;;21.60;58.90;;;;;;220514;1280;22658;-48
2023/01/08 14:39:09;;;;;;;7.70;6.50;;;21.60;58.70;;;;;;220598;1275;22547;-48
2023/01/08 14:44:14;;;;;;;11.10;6.60;;;21.60;59.20;;;;;;220693;1280;24043;-50
2023/01/08 14:49:27;;;;;;;9.40;6.60;;;21.60;58.60;;;;;;220667;1280;22551;-46
2023/01/08 14:54:35;;;;;;;9.30;6.60;;;21.50;58.70;;;;;;220526;1280;24234;-48
2023/01/08 14:59:39;;;;;;;9.60;6.40;;;21.50;58.70;;;;;;221467;1274;22635;-48
2023/01/08 15:04:44;;;;;;;8.90;7.10;;;21.50;59.00;;;;;;221423;1274;22528;-48
2023/01/08 15:09:57;;;;;;;7.50;6.30;;;21.50;58.70;;;;;;221488;1274;22561;-50
2023/01/08 15:15:23;;;;;;;8.20;6.40;;;21.40;58.50;;;;;;221962;1274;25244;-46
2023/01/08 15:20:31;;;;;;;7.60;5.90;;;21.40;58.60;;;;;;221699;1274;24275;-48
2023/01/08 15:25:35;;;;;;;7.20;5.80;;;21.30;58.60;;;;;;221559;1274;22549;-49
2023/01/08 15:30:44;;;;;;;8.20;6.10;;;21.30;58.60;;;;;;221411;1275;25417;-47
2023/01/08 15:35:50;;;;;;;6.90;6.00;;;21.30;58.60;;;;;;221469;1274;22667;-46
2023/01/08 15:40:55;;;;;;;7.10;5.90;;;21.20;58.60;;;;;;221588;1274;24344;-49
2023/01/08 15:46:00;;;;;;;7.70;6.10;;;21.20;58.70;;;;;;221767;1272;23579;-47
2023/01/08 15:51:04;;;;;;;5.80;5.20;;;21.20;58.70;;;;;;221960;1272;22707;-49
2023/01/08 15:56:10;;;;;;;6.30;5.70;;;21.20;58.50;;;;;;221769;1272;23907;-48
2023/01/08 16:01:14;;;;;;;6.50;5.90;;;21.10;58.60;;;;;;221658;1265;22543;-48
2023/01/08 16:06:19;;;;;;;6.70;5.60;;;21.10;58.30;;;;;;221489;1272;24349;-46
2023/01/08 16:11:24;;;;;;;7.90;6.20;;;21.00;58.60;;;;;;221945;1272;23914;-48
2023/01/08 16:16:28;;;;;;;7.50;6.30;;;21.00;58.60;;;;;;221558;1272;25365;-48
2023/01/08 16:21:32;;;;;;;7.80;5.70;;;21.00;58.80;;;;;;221705;1266;23873;-47
2023/01/08 16:26:38;;;;;;;5.90;5.30;;;21.00;58.40;;;;;;221770;1272;22581;-49
2023/01/08 16:31:44;;;;;;;6.40;5.80;;;21.00;58.50;;;;;;221754;1268;22537;-47
2023/01/08 16:36:50;;;;;;;7.70;6.30;;;21.00;58.40;;;;;;221716;1272;22485;-46
2023/01/08 16:41:56;;;;;;;7.50;5.80;;;20.90;58.00;;;;;;221845;1272;25491;-46
2023/01/08 16:47:01;;;;;;;6.70;6.00;;;21.00;58.10;;;;;;221850;1266;22672;-47
2023/01/08 16:52:08;;;;;;;6.80;6.10;;;21.00;58.50;;;;;;221492;1272;22527;-49
2023/01/08 16:57:16;;;;;;;6.60;5.90;;;20.90;58.10;;;;;;221702;1272;23156;-48
2023/01/08 17:02:20;;;;;;;6.30;5.80;;;20.90;58.10;;;;;;221703;1251;25466;-50
2023/01/08 17:07:25;;;;;;;6.70;6.10;;;20.90;58.10;;;;;;221767;1265;23753;-48
2023/01/08 17:12:30;;;;;;;6.40;5.80;;;20.90;57.90;;;;;;221755;1272;23764;-48
2023/01/08 17:17:34;;;;;;;6.10;5.50;;;20.90;58.00;;;;;;222001;1272;25309;-49
2023/01/08 17:22:40;;;;;;;6.90;6.20;;;20.90;58.10;;;;;;221659;1272;22724;-48
2023/01/08 17:27:45;;;;;;;6.50;5.80;;;20.90;58.10;;;;;;221838;1270;22528;-50
2023/01/08 17:32:53;;;;;;;7.00;6.20;;;20.80;57.90;;;;;;221649;1272;22516;-49
2023/01/08 17:37:58;;;;;;;6.80;6.00;;;20.80;58.30;;;;;;221739;1268;24212;-48
2023/01/08 17:43:03;;;;;;;7.20;6.00;;;20.80;57.80;;;;;;221922;1269;22528;-48
2023/01/08 17:48:08;;;;;;;7.10;6.20;;;20.80;57.90;;;;;;221796;1269;26484;-47
2023/01/08 17:53:14;;;;;;;6.70;6.10;;;20.70;57.80;;;;;;221659;1272;22608;-50
2023/01/08 17:58:22;;;;;;;6.70;5.90;;;20.80;58.30;;;;;;221647;1272;24203;-47
2023/01/08 18:03:27;;;;;;;7.60;5.80;;;20.70;57.80;;;;;;221789;1272;22643;-47
2023/01/08 18:08:34;;;;;;;7.70;6.30;;;20.70;58.00;;;;;;221730;1272;24259;-52
2023/01/08 18:13:40;;;;;;;6.90;6.20;;;20.70;57.70;;;;;;221945;1272;22530;-47
2023/01/08 18:18:46;;;;;;;6.80;6.20;;;20.70;57.70;;;;;;221719;1272;25320;-47
2023/01/08 18:23:51;;;;;;;7.60;6.20;;;20.70;57.80;;;;;;221994;1272;25307;-48
2023/01/08 18:28:56;;;;;;;7.00;6.30;;;20.60;57.50;;;;;;221862;1272;25332;-48
2023/01/08 18:34:02;;;;;;;6.80;6.10;;;20.60;57.80;;;;;;222057;1267;22614;-46
2023/01/08 18:39:07;;;;;;;6.80;5.80;;;20.60;57.60;;;;;;221875;1266;25284;-47
2023/01/08 18:44:12;;;;;;;6.60;6.00;;;20.60;57.50;;;;;;221933;1272;22523;-48
2023/01/08 18:49:19;;;;;;;6.20;5.60;;;20.60;57.50;;;;;;221796;1272;24263;-47
2023/01/08 18:54:24;;;;;;;6.90;6.30;;;20.60;57.40;;;;;;221713;1272;22531;-46
2023/01/08 18:59:31;;;;;;;7.30;6.50;;;20.60;57.70;;;;;;221824;1267;22542;-46
2023/01/08 19:04:37;;;;;;;6.90;6.30;;;20.60;57.80;;;;;;221855;1271;22579;-47
2023/01/08 19:09:43;;;;;;;6.50;5.80;;;20.50;57.70;;;;;;221746;1272;25555;-51
2023/01/08 19:14:48;;;;;;;6.60;6.00;;;20.50;57.50;;;;;;221678;1272;25294;-51
2023/01/08 19:19:53;;;;;;;6.40;5.70;;;20.50;57.50;;;;;;221706;1272;25395;-51
2023/01/08 19:24:59;;;;;;;6.00;5.40;;;20.50;57.50;;;;;;221820;1260;22536;-49
2023/01/08 19:30:06;;;;;;;6.50;5.70;;;20.40;57.40;;;;;;221982;1272;22541;-48
2023/01/08 19:35:11;;;;;;;6.70;6.00;;;20.50;57.50;;;;;;221828;1272;24284;-51
2023/01/08 19:40:16;;;;;;;6.90;6.20;;;20.50;57.40;;;;;;221840;1272;22643;-45
2023/01/08 19:45:21;;;;;;;6.30;5.70;;;20.40;57.40;;;;;;221871;1272;24289;-50
2023/01/08 19:50:29;;;;;;;6.40;5.80;;;20.40;57.40;;;;;;221844;1272;22530;-46
2023/01/08 19:55:36;;;;;;;7.10;6.20;;;20.40;57.40;;;;;;221823;1270;23895;-49
2023/01/08 20:00:42;;;;;;;6.10;5.50;;;20.40;57.30;;;;;;221910;1271;22604;-49
2023/01/08 20:05:49;;;;;;;7.10;6.40;;;20.40;57.70;;;;;;221631;1272;22530;-49
2023/01/08 20:10:55;;;;;;;6.30;5.70;;;20.40;57.60;;;;;;221945;1272;23588;-49
2023/01/08 20:16:02;;;;;;;6.30;5.70;;;20.40;57.30;;;;;;221814;1270;24195;-46
2023/01/08 20:21:15;;;;;;;6.80;6.10;;;20.40;57.30;;;;;;221650;1267;24860;-47
2023/01/08 20:26:22;;;;;;;6.10;5.50;;;20.40;57.30;;;;;;221888;1267;25360;-45
2023/01/08 20:31:30;;;;;;;7.00;6.40;;;20.30;57.30;;;;;;221943;1272;25008;-48
2023/01/08 20:36:36;;;;;;;6.70;6.10;;;20.30;57.30;;;;;;221445;1272;24219;-49
2023/01/08 20:41:44;;;;;;;6.80;6.10;;;20.30;57.40;;;;;;221491;1265;26328;-49
2023/01/08 20:47:04;;;;;;;6.40;5.80;;;20.30;57.20;;;;;;222035;1270;24660;-46
2023/01/08 20:52:09;;;;;;;6.60;6.00;;;20.20;57.20;;;;;;221681;1272;22526;-49
2023/01/08 20:57:13;;;;;;;7.10;6.40;;;20.30;57.90;;;;;;221828;1272;22640;-50
2023/01/08 21:02:19;;;;;;;7.10;6.20;;;20.20;57.60;;;;;;221839;1272;22679;-45
2023/01/08 21:07:28;;;;;;;7.50;6.40;;;20.20;57.20;;;;;;221845;1259;22531;-50
2023/01/08 21:12:35;;;;;;;7.00;6.30;;;20.20;57.10;;;;;;221895;1272;23645;-47
2023/01/08 21:17:49;;;;;;;7.10;6.40;;;20.20;57.20;;;;;;221762;1269;22593;-48
2023/01/08 21:22:53;;;;;;;7.00;6.30;;;20.20;57.10;;;;;;221780;1272;25345;-49
2023/01/08 21:27:58;;;;;;;6.60;6.00;;;20.10;57.20;;;;;;221864;1269;22700;-46
2023/01/08 21:33:02;;;;;;;7.40;6.60;;;20.20;57.10;;;;;;221789;1270;24221;-47
2023/01/08 21:38:07;;;;;;;6.90;6.30;;;20.10;57.00;;;;;;221885;1272;25359;-48
2023/01/08 21:48:35;;;;;;;7.90;7.20;;;20.10;57.20;;;;;;221827;1270;24273;-47
2023/01/08 21:53:40;;;;;;;7.30;6.60;;;20.10;57.20;;;;;;221935;1266;22663;-49
2023/01/08 21:58:44;;;;;;;7.40;6.70;;;20.00;57.00;;;;;;221843;1272;25242;-48
2023/01/08 22:03:48;;;;;;;6.90;6.30;;;20.10;57.20;;;;;;221823;1265;22637;-47
2023/01/08 22:08:55;;;;;;;7.60;6.80;;;20.00;57.10;;;;;;221912;1265;23347;-47
2023/01/08 22:13:59;;;;;;;7.10;6.40;;;20.00;57.30;;;;;;221858;1272;23884;-47
2023/01/08 22:19:04;;;;;;;7.60;6.70;;;20.00;57.10;;;;;;221909;1272;22529;-47
2023/01/08 22:24:08;;;;;;;7.30;6.60;;;20.00;57.40;;;;;;221692;1272;24177;-47
2023/01/08 22:29:12;;;;;;;9.00;7.30;;;20.00;57.00;;;;;;221813;1270;22521;-49
2023/01/08 22:34:17;;;;;;;7.80;7.00;;;20.00;56.90;;;;;;222037;1272;25361;-49
2023/01/08 22:39:22;;;;;;;7.80;7.00;;;19.90;57.10;;;;;;221774;1272;25345;-48
2023/01/08 22:44:26;;;;;;;7.80;7.00;;;19.90;57.00;;;;;;221795;1267;22812;-49
2023/01/08 22:49:32;;;;;;;7.70;7.00;;;19.90;57.10;;;;;;221849;1270;22537;-49
2023/01/08 22:54:37;;;;;;;7.90;7.10;;;19.90;57.00;;;;;;222653;1262;22650;-46
2023/01/08 22:59:42;;;;;;;7.40;6.70;;;19.90;57.20;;;;;;222402;1269;22616;-47
2023/01/08 23:04:52;;;;;;;7.90;7.20;;;19.80;57.40;;;;;;222771;1269;24878;-47
2023/01/08 23:09:56;;;;;;;7.90;7.10;;;19.80;57.30;;;;;;222583;1265;25246;-49
2023/01/08 23:15:04;;;;;;;8.80;7.90;;;19.70;57.10;;;;;;222807;1269;22525;-48
2023/01/08 23:20:09;;;;;;;7.90;7.10;;;19.80;56.90;;;;;;222856;1261;22615;-47
2023/01/08 23:25:15;;;;;;;7.90;7.20;;;19.80;57.20;;;;;;222798;1266;22755;-49
2023/01/08 23:30:19;;;;;;;7.60;6.90;;;19.70;56.80;;;;;;222824;1267;25165;-46
2023/01/08 23:35:23;;;;;;;7.70;7.00;;;19.70;56.90;;;;;;222490;1269;25422;-47
2023/01/08 23:40:28;;;;;;;7.90;7.20;;;19.70;56.90;;;;;;222384;1269;22527;-47
2023/01/08 23:45:35;;;;;;;8.50;7.60;;;19.70;56.70;;;;;;222633;1269;22584;-49
2023/01/08 23:50:39;;;;;;;8.00;6.90;;;19.80;56.60;;;;;;222388;1269;22773;-48
2023/01/08 23:55:44;;;;;;;8.10;7.30;;;19.70;56.60;;;;;;222925;1269;22534;-46
